Terminal Aerodrome Forecast
Issued by NWS Twin Cities, MN

Home | Current Version | Previous Version | Graphics & Text | Print | Product List | Glossary On
Versions: 1 2 3 4 5 6 7 8 9 10 11 12 13 14 15 16 17
000
FTUS43 KMPX 181136
TAFEAU
TAF
KEAU 181136Z 1812/1912 18005KT P6SM SCT060 BKN130
     FM181800 23006KT 6SM -SHRA VCTS SCT040CB BKN070
      TEMPO 1820/1824 3SM TSRA BKN020CB
     FM190100 01004KT 6SM -SHRA VCTS SCT050CB OVC080
     FM190300 VRB03KT P6SM BKN020
     FM190900 VRB03KT P6SM SCT035=

USA.gov is the U.S. government's official web portal to all federal, state and local government web resources and services.